sensor_id;sensor_type;location;lat;lon;timestamp;P1;P2;P0
77365;PMS5003;66430;50.182;11.704;2023-07-28T00:02:12;7;7;
77365;PMS5003;66430;50.182;11.704;2023-07-28T00:04:38;11;8;
77365;PMS5003;66430;50.182;11.704;2023-07-28T00:07:03;8;8;
77365;PMS5003;66430;50.182;11.704;2023-07-28T00:09:28;9;7;
77365;PMS5003;66430;50.182;11.704;2023-07-28T00:11:53;6;6;
77365;PMS5003;66430;50.182;11.704;2023-07-28T00:14:19;9;7;
77365;PMS5003;66430;50.182;11.704;2023-07-28T00:16:44;5;5;
77365;PMS5003;66430;50.182;11.704;2023-07-28T00:19:10;7;7;
77365;PMS5003;66430;50.182;11.704;2023-07-28T00:21:35;7;7;
77365;PMS5003;66430;50.182;11.704;2023-07-28T00:24:00;6;6;
77365;PMS5003;66430;50.182;11.704;2023-07-28T00:26:26;4;4;
77365;PMS5003;66430;50.182;11.704;2023-07-28T00:28:51;5;5;
77365;PMS5003;66430;50.182;11.704;2023-07-28T00:31:17;2;2;
77365;PMS5003;66430;50.182;11.704;2023-07-28T00:33:42;4;3;
77365;PMS5003;66430;50.182;11.704;2023-07-28T00:36:07;3;3;
77365;PMS5003;66430;50.182;11.704;2023-07-28T00:38:33;5;3;
77365;PMS5003;66430;50.182;11.704;2023-07-28T00:40:58;2;2;
77365;PMS5003;66430;50.182;11.704;2023-07-28T00:43:23;3;3;
77365;PMS5003;66430;50.182;11.704;2023-07-28T00:45:49;3;3;
77365;PMS5003;66430;50.182;11.704;2023-07-28T00:48:14;3;3;
77365;PMS5003;66430;50.182;11.704;2023-07-28T00:50:40;4;4;
77365;PMS5003;66430;50.182;11.704;2023-07-28T00:53:05;5;5;
77365;PMS5003;66430;50.182;11.704;2023-07-28T00:55:30;3;3;
77365;PMS5003;66430;50.182;11.704;2023-07-28T00:57:55;4;3;
77365;PMS5003;66430;50.182;11.704;2023-07-28T01:00:21;3;3;
77365;PMS5003;66430;50.182;11.704;2023-07-28T01:02:46;5;4;
77365;PMS5003;66430;50.182;11.704;2023-07-28T01:05:12;5;5;
77365;PMS5003;66430;50.182;11.704;2023-07-28T01:07:38;4;3;
77365;PMS5003;66430;50.182;11.704;2023-07-28T01:10:04;4;3;
77365;PMS5003;66430;50.182;11.704;2023-07-28T01:12:28;3;3;
77365;PMS5003;66430;50.182;11.704;2023-07-28T01:14:53;3;2;
77365;PMS5003;66430;50.182;11.704;2023-07-28T01:17:19;3;3;
77365;PMS5003;66430;50.182;11.704;2023-07-28T01:19:44;3;3;
77365;PMS5003;66430;50.182;11.704;2023-07-28T01:22:14;1;1;
77365;PMS5003;66430;50.182;11.704;2023-07-28T01:24:36;1;1;
77365;PMS5003;66430;50.182;11.704;2023-07-28T01:27:00;0;0;
77365;PMS5003;66430;50.182;11.704;2023-07-28T01:29:25;2;2;
77365;PMS5003;66430;50.182;11.704;2023-07-28T01:31:51;1;1;
77365;PMS5003;66430;50.182;11.704;2023-07-28T01:34:16;0;0;
77365;PMS5003;66430;50.182;11.704;2023-07-28T01:36:41;1;1;
77365;PMS5003;66430;50.182;11.704;2023-07-28T01:39:06;1;1;
77365;PMS5003;66430;50.182;11.704;2023-07-28T01:41:32;2;2;
77365;PMS5003;66430;50.182;11.704;2023-07-28T01:43:57;4;2;
77365;PMS5003;66430;50.182;11.704;2023-07-28T01:46:22;1;1;
77365;PMS5003;66430;50.182;11.704;2023-07-28T01:48:48;1;1;
77365;PMS5003;66430;50.182;11.704;2023-07-28T01:51:13;0;0;
77365;PMS5003;66430;50.182;11.704;2023-07-28T01:53:39;1;1;
77365;PMS5003;66430;50.182;11.704;2023-07-28T01:56:04;0;0;
77365;PMS5003;66430;50.182;11.704;2023-07-28T01:58:29;1;1;
77365;PMS5003;66430;50.182;11.704;2023-07-28T02:00:55;2;2;
77365;PMS5003;66430;50.182;11.704;2023-07-28T02:03:20;1;1;
77365;PMS5003;66430;50.182;11.704;2023-07-28T02:05:45;3;1;
77365;PMS5003;66430;50.182;11.704;2023-07-28T02:08:11;3;2;
77365;PMS5003;66430;50.182;11.704;2023-07-28T02:10:36;1;1;
77365;PMS5003;66430;50.182;11.704;2023-07-28T02:13:01;2;2;
77365;PMS5003;66430;50.182;11.704;2023-07-28T02:15:27;2;2;
77365;PMS5003;66430;50.182;11.704;2023-07-28T02:17:52;2;1;
77365;PMS5003;66430;50.182;11.704;2023-07-28T02:20:17;1;1;
77365;PMS5003;66430;50.182;11.704;2023-07-28T02:22:43;1;1;
77365;PMS5003;66430;50.182;11.704;2023-07-28T02:25:08;1;1;
77365;PMS5003;66430;50.182;11.704;2023-07-28T02:27:34;1;1;
77365;PMS5003;66430;50.182;11.704;2023-07-28T02:29:59;1;1;
77365;PMS5003;66430;50.182;11.704;2023-07-28T02:32:25;2;2;
77365;PMS5003;66430;50.182;11.704;2023-07-28T02:34:50;2;2;
77365;PMS5003;66430;50.182;11.704;2023-07-28T02:37:15;1;1;
77365;PMS5003;66430;50.182;11.704;2023-07-28T02:39:40;3;3;
77365;PMS5003;66430;50.182;11.704;2023-07-28T02:42:06;0;0;
77365;PMS5003;66430;50.182;11.704;2023-07-28T02:44:31;2;2;
77365;PMS5003;66430;50.182;11.704;2023-07-28T02:46:57;2;1;
77365;PMS5003;66430;50.182;11.704;2023-07-28T02:49:22;2;2;
77365;PMS5003;66430;50.182;11.704;2023-07-28T02:51:47;3;2;
77365;PMS5003;66430;50.182;11.704;2023-07-28T02:54:13;0;0;
77365;PMS5003;66430;50.182;11.704;2023-07-28T02:56:38;1;1;
77365;PMS5003;66430;50.182;11.704;2023-07-28T02:59:03;1;1;
77365;PMS5003;66430;50.182;11.704;2023-07-28T03:01:29;1;1;
77365;PMS5003;66430;50.182;11.704;2023-07-28T03:03:54;0;0;
77365;PMS5003;66430;50.182;11.704;2023-07-28T03:06:19;2;2;
77365;PMS5003;66430;50.182;11.704;2023-07-28T03:08:45;2;2;
77365;PMS5003;66430;50.182;11.704;2023-07-28T03:11:10;2;2;
77365;PMS5003;66430;50.182;11.704;2023-07-28T03:13:35;2;2;
77365;PMS5003;66430;50.182;11.704;2023-07-28T03:16:01;1;1;
77365;PMS5003;66430;50.182;11.704;2023-07-28T03:18:26;1;1;
77365;PMS5003;66430;50.182;11.704;2023-07-28T03:20:51;2;2;
77365;PMS5003;66430;50.182;11.704;2023-07-28T03:23:17;1;1;
77365;PMS5003;66430;50.182;11.704;2023-07-28T03:25:42;0;0;
77365;PMS5003;66430;50.182;11.704;2023-07-28T03:28:07;2;1;
77365;PMS5003;66430;50.182;11.704;2023-07-28T03:30:33;0;0;
77365;PMS5003;66430;50.182;11.704;2023-07-28T03:32:58;2;2;
77365;PMS5003;66430;50.182;11.704;2023-07-28T03:35:24;1;1;
77365;PMS5003;66430;50.182;11.704;2023-07-28T03:37:49;3;2;
77365;PMS5003;66430;50.182;11.704;2023-07-28T03:40:14;3;3;
77365;PMS5003;66430;50.182;11.704;2023-07-28T03:42:40;1;1;
77365;PMS5003;66430;50.182;11.704;2023-07-28T03:45:06;2;2;
77365;PMS5003;66430;50.182;11.704;2023-07-28T03:47:30;2;2;
77365;PMS5003;66430;50.182;11.704;2023-07-28T03:49:56;1;1;
77365;PMS5003;66430;50.182;11.704;2023-07-28T03:52:21;1;1;
77365;PMS5003;66430;50.182;11.704;2023-07-28T03:54:46;2;2;
77365;PMS5003;66430;50.182;11.704;2023-07-28T03:57:12;1;1;
77365;PMS5003;66430;50.182;11.704;2023-07-28T03:59:37;2;1;
77365;PMS5003;66430;50.182;11.704;2023-07-28T04:02:03;1;1;
77365;PMS5003;66430;50.182;11.704;2023-07-28T04:04:28;2;2;
77365;PMS5003;66430;50.182;11.704;2023-07-28T04:06:53;4;2;
77365;PMS5003;66430;50.182;11.704;2023-07-28T04:09:19;0;0;
77365;PMS5003;66430;50.182;11.704;2023-07-28T04:11:44;2;2;
77365;PMS5003;66430;50.182;11.704;2023-07-28T04:14:09;2;2;
77365;PMS5003;66430;50.182;11.704;2023-07-28T04:16:35;2;2;
77365;PMS5003;66430;50.182;11.704;2023-07-28T04:19:00;2;2;
77365;PMS5003;66430;50.182;11.704;2023-07-28T04:21:25;2;2;
77365;PMS5003;66430;50.182;11.704;2023-07-28T04:23:51;2;2;
77365;PMS5003;66430;50.182;11.704;2023-07-28T04:26:16;0;0;
77365;PMS5003;66430;50.182;11.704;2023-07-28T04:28:41;2;2;
77365;PMS5003;66430;50.182;11.704;2023-07-28T04:31:07;1;1;
77365;PMS5003;66430;50.182;11.704;2023-07-28T04:33:32;2;2;
77365;PMS5003;66430;50.182;11.704;2023-07-28T04:35:57;3;2;
77365;PMS5003;66430;50.182;11.704;2023-07-28T04:38:23;3;3;
77365;PMS5003;66430;50.182;11.704;2023-07-28T04:40:48;3;3;
77365;PMS5003;66430;50.182;11.704;2023-07-28T04:43:13;1;1;
77365;PMS5003;66430;50.182;11.704;2023-07-28T04:45:39;2;2;
77365;PMS5003;66430;50.182;11.704;2023-07-28T04:48:04;2;2;
77365;PMS5003;66430;50.182;11.704;2023-07-28T04:50:29;2;2;
77365;PMS5003;66430;50.182;11.704;2023-07-28T04:52:55;2;2;
77365;PMS5003;66430;50.182;11.704;2023-07-28T04:55:20;2;2;
77365;PMS5003;66430;50.182;11.704;2023-07-28T04:57:46;4;2;
77365;PMS5003;66430;50.182;11.704;2023-07-28T05:00:11;2;2;
77365;PMS5003;66430;50.182;11.704;2023-07-28T05:02:36;2;2;
77365;PMS5003;66430;50.182;11.704;2023-07-28T05:05:02;1;1;
77365;PMS5003;66430;50.182;11.704;2023-07-28T05:07:27;3;2;
77365;PMS5003;66430;50.182;11.704;2023-07-28T05:09:52;2;2;
77365;PMS5003;66430;50.182;11.704;2023-07-28T05:12:18;2;2;
77365;PMS5003;66430;50.182;11.704;2023-07-28T05:14:43;5;2;
77365;PMS5003;66430;50.182;11.704;2023-07-28T05:17:09;3;3;
77365;PMS5003;66430;50.182;11.704;2023-07-28T05:19:34;2;2;
77365;PMS5003;66430;50.182;11.704;2023-07-28T05:22:05;3;3;
77365;PMS5003;66430;50.182;11.704;2023-07-28T05:24:24;2;2;
77365;PMS5003;66430;50.182;11.704;2023-07-28T05:26:50;3;1;
77365;PMS5003;66430;50.182;11.704;2023-07-28T05:29:15;1;1;
77365;PMS5003;66430;50.182;11.704;2023-07-28T05:31:40;1;1;
77365;PMS5003;66430;50.182;11.704;2023-07-28T05:34:06;1;1;
77365;PMS5003;66430;50.182;11.704;2023-07-28T05:36:31;4;2;
77365;PMS5003;66430;50.182;11.704;2023-07-28T05:38:57;1;1;
77365;PMS5003;66430;50.182;11.704;2023-07-28T05:41:22;4;4;
77365;PMS5003;66430;50.182;11.704;2023-07-28T05:43:47;2;2;
77365;PMS5003;66430;50.182;11.704;2023-07-28T05:46:13;2;2;
77365;PMS5003;66430;50.182;11.704;2023-07-28T05:48:38;3;3;
77365;PMS5003;66430;50.182;11.704;2023-07-28T05:51:03;4;4;
77365;PMS5003;66430;50.182;11.704;2023-07-28T05:53:29;1;1;
77365;PMS5003;66430;50.182;11.704;2023-07-28T05:55:54;2;2;
77365;PMS5003;66430;50.182;11.704;2023-07-28T05:58:19;3;3;
77365;PMS5003;66430;50.182;11.704;2023-07-28T06:00:45;4;4;
77365;PMS5003;66430;50.182;11.704;2023-07-28T06:03:10;5;3;
77365;PMS5003;66430;50.182;11.704;2023-07-28T06:05:35;6;6;
77365;PMS5003;66430;50.182;11.704;2023-07-28T06:08:01;3;3;
77365;PMS5003;66430;50.182;11.704;2023-07-28T06:10:26;2;2;
77365;PMS5003;66430;50.182;11.704;2023-07-28T06:12:52;5;5;
77365;PMS5003;66430;50.182;11.704;2023-07-28T06:15:17;4;4;
77365;PMS5003;66430;50.182;11.704;2023-07-28T06:17:42;6;5;
77365;PMS5003;66430;50.182;11.704;2023-07-28T06:20:08;3;3;
77365;PMS5003;66430;50.182;11.704;2023-07-28T06:22:33;4;4;
77365;PMS5003;66430;50.182;11.704;2023-07-28T06:24:58;3;3;
77365;PMS5003;66430;50.182;11.704;2023-07-28T06:27:24;4;3;
77365;PMS5003;66430;50.182;11.704;2023-07-28T06:29:49;5;5;
77365;PMS5003;66430;50.182;11.704;2023-07-28T06:32:15;6;5;
77365;PMS5003;66430;50.182;11.704;2023-07-28T06:34:40;4;4;
77365;PMS5003;66430;50.182;11.704;2023-07-28T06:37:05;3;3;
77365;PMS5003;66430;50.182;11.704;2023-07-28T06:39:31;4;4;
77365;PMS5003;66430;50.182;11.704;2023-07-28T06:41:56;4;4;
77365;PMS5003;66430;50.182;11.704;2023-07-28T06:44:21;5;5;
77365;PMS5003;66430;50.182;11.704;2023-07-28T06:46:47;3;3;
77365;PMS5003;66430;50.182;11.704;2023-07-28T06:49:12;4;4;
77365;PMS5003;66430;50.182;11.704;2023-07-28T06:51:38;3;3;
77365;PMS5003;66430;50.182;11.704;2023-07-28T06:54:03;3;3;
77365;PMS5003;66430;50.182;11.704;2023-07-28T06:56:28;4;4;
77365;PMS5003;66430;50.182;11.704;2023-07-28T06:58:53;5;5;
77365;PMS5003;66430;50.182;11.704;2023-07-28T07:01:19;4;4;
77365;PMS5003;66430;50.182;11.704;2023-07-28T07:03:44;5;4;
77365;PMS5003;66430;50.182;11.704;2023-07-28T07:06:10;2;2;
77365;PMS5003;66430;50.182;11.704;2023-07-28T07:08:35;1;1;
77365;PMS5003;66430;50.182;11.704;2023-07-28T07:11:00;3;3;
77365;PMS5003;66430;50.182;11.704;2023-07-28T07:13:25;1;1;
77365;PMS5003;66430;50.182;11.704;2023-07-28T07:15:51;2;2;
77365;PMS5003;66430;50.182;11.704;2023-07-28T07:18:16;3;2;
77365;PMS5003;66430;50.182;11.704;2023-07-28T07:20:41;2;2;
77365;PMS5003;66430;50.182;11.704;2023-07-28T07:23:07;3;3;
77365;PMS5003;66430;50.182;11.704;2023-07-28T07:25:38;3;3;
77365;PMS5003;66430;50.182;11.704;2023-07-28T07:27:58;2;2;
77365;PMS5003;66430;50.182;11.704;2023-07-28T07:30:23;4;3;
77365;PMS5003;66430;50.182;11.704;2023-07-28T07:32:48;2;1;
77365;PMS5003;66430;50.182;11.704;2023-07-28T07:35:14;2;2;
77365;PMS5003;66430;50.182;11.704;2023-07-28T07:37:40;0;0;
77365;PMS5003;66430;50.182;11.704;2023-07-28T07:40:05;1;1;
77365;PMS5003;66430;50.182;11.704;2023-07-28T07:44:55;3;1;
77365;PMS5003;66430;50.182;11.704;2023-07-28T07:47:20;1;1;
77365;PMS5003;66430;50.182;11.704;2023-07-28T07:49:46;0;0;
77365;PMS5003;66430;50.182;11.704;2023-07-28T07:52:11;1;1;
77365;PMS5003;66430;50.182;11.704;2023-07-28T07:54:36;2;2;
77365;PMS5003;66430;50.182;11.704;2023-07-28T07:57:02;1;1;
77365;PMS5003;66430;50.182;11.704;2023-07-28T07:59:27;2;2;
77365;PMS5003;66430;50.182;11.704;2023-07-28T08:01:52;1;1;
77365;PMS5003;66430;50.182;11.704;2023-07-28T08:04:18;2;2;
77365;PMS5003;66430;50.182;11.704;2023-07-28T08:06:43;1;1;
77365;PMS5003;66430;50.182;11.704;2023-07-28T08:09:09;0;0;
77365;PMS5003;66430;50.182;11.704;2023-07-28T08:11:34;1;1;
77365;PMS5003;66430;50.182;11.704;2023-07-28T08:13:59;4;4;
77365;PMS5003;66430;50.182;11.704;2023-07-28T08:16:24;2;2;
77365;PMS5003;66430;50.182;11.704;2023-07-28T08:18:50;4;4;
77365;PMS5003;66430;50.182;11.704;2023-07-28T08:21:16;4;4;
77365;PMS5003;66430;50.182;11.704;2023-07-28T08:23:40;4;4;
77365;PMS5003;66430;50.182;11.704;2023-07-28T08:26:06;4;4;
77365;PMS5003;66430;50.182;11.704;2023-07-28T08:28:31;6;6;
77365;PMS5003;66430;50.182;11.704;2023-07-28T08:30:56;4;4;
77365;PMS5003;66430;50.182;11.704;2023-07-28T08:33:22;5;5;
77365;PMS5003;66430;50.182;11.704;2023-07-28T08:35:47;3;3;
77365;PMS5003;66430;50.182;11.704;2023-07-28T08:38:13;4;4;
77365;PMS5003;66430;50.182;11.704;2023-07-28T08:40:38;4;4;
77365;PMS5003;66430;50.182;11.704;2023-07-28T08:43:04;3;3;
77365;PMS5003;66430;50.182;11.704;2023-07-28T08:45:28;4;4;
77365;PMS5003;66430;50.182;11.704;2023-07-28T08:47:54;4;4;
77365;PMS5003;66430;50.182;11.704;2023-07-28T08:50:19;4;4;
77365;PMS5003;66430;50.182;11.704;2023-07-28T08:52:45;4;4;
77365;PMS5003;66430;50.182;11.704;2023-07-28T08:55:10;4;4;
77365;PMS5003;66430;50.182;11.704;2023-07-28T08:57:35;4;4;
77365;PMS5003;66430;50.182;11.704;2023-07-28T09:02:26;3;3;
77365;PMS5003;66430;50.182;11.704;2023-07-28T09:04:51;3;3;
77365;PMS5003;66430;50.182;11.704;2023-07-28T09:07:21;3;3;
77365;PMS5003;66430;50.182;11.704;2023-07-28T09:09:42;5;5;
77365;PMS5003;66430;50.182;11.704;2023-07-28T09:12:07;5;5;
77365;PMS5003;66430;50.182;11.704;2023-07-28T09:14:34;5;5;
77365;PMS5003;66430;50.182;11.704;2023-07-28T09:19:23;6;5;
77365;PMS5003;66430;50.182;11.704;2023-07-28T09:24:14;4;4;
77365;PMS5003;66430;50.182;11.704;2023-07-28T09:26:39;4;4;
77365;PMS5003;66430;50.182;11.704;2023-07-28T09:29:11;4;4;
77365;PMS5003;66430;50.182;11.704;2023-07-28T09:31:30;4;4;
77365;PMS5003;66430;50.182;11.704;2023-07-28T09:33:55;2;2;
77365;PMS5003;66430;50.182;11.704;2023-07-28T09:36:20;5;5;
77365;PMS5003;66430;50.182;11.704;2023-07-28T09:38:46;4;4;
77365;PMS5003;66430;50.182;11.704;2023-07-28T09:41:11;4;4;
77365;PMS5003;66430;50.182;11.704;2023-07-28T09:43:36;5;5;
77365;PMS5003;66430;50.182;11.704;2023-07-28T09:46:03;4;4;
77365;PMS5003;66430;50.182;11.704;2023-07-28T09:48:27;4;4;
77365;PMS5003;66430;50.182;11.704;2023-07-28T09:50:53;5;5;
77365;PMS5003;66430;50.182;11.704;2023-07-28T09:53:18;4;4;
77365;PMS5003;66430;50.182;11.704;2023-07-28T09:55:43;6;5;
77365;PMS5003;66430;50.182;11.704;2023-07-28T09:58:09;5;5;
77365;PMS5003;66430;50.182;11.704;2023-07-28T10:00:34;4;4;
77365;PMS5003;66430;50.182;11.704;2023-07-28T10:03:00;4;4;
77365;PMS5003;66430;50.182;11.704;2023-07-28T10:05:25;3;3;
77365;PMS5003;66430;50.182;11.704;2023-07-28T10:07:50;5;5;
77365;PMS5003;66430;50.182;11.704;2023-07-28T10:10:15;5;5;
77365;PMS5003;66430;50.182;11.704;2023-07-28T10:12:41;2;2;
77365;PMS5003;66430;50.182;11.704;2023-07-28T10:15:06;3;3;
77365;PMS5003;66430;50.182;11.704;2023-07-28T10:17:32;4;4;
77365;PMS5003;66430;50.182;11.704;2023-07-28T10:19:56;5;4;
77365;PMS5003;66430;50.182;11.704;2023-07-28T10:22:22;3;3;
77365;PMS5003;66430;50.182;11.704;2023-07-28T10:24:50;2;2;
77365;PMS5003;66430;50.182;11.704;2023-07-28T10:27:15;4;4;
77365;PMS5003;66430;50.182;11.704;2023-07-28T10:29:39;3;3;
77365;PMS5003;66430;50.182;11.704;2023-07-28T10:32:03;3;3;
77365;PMS5003;66430;50.182;11.704;2023-07-28T10:34:29;4;3;
77365;PMS5003;66430;50.182;11.704;2023-07-28T10:36:57;2;2;
77365;PMS5003;66430;50.182;11.704;2023-07-28T10:39:19;3;3;
77365;PMS5003;66430;50.182;11.704;2023-07-28T10:44:10;3;3;
77365;PMS5003;66430;50.182;11.704;2023-07-28T10:46:35;1;1;
77365;PMS5003;66430;50.182;11.704;2023-07-28T10:49:04;4;4;
77365;PMS5003;66430;50.182;11.704;2023-07-28T10:51:28;3;2;
77365;PMS5003;66430;50.182;11.704;2023-07-28T10:53:54;4;4;
77365;PMS5003;66430;50.182;11.704;2023-07-28T10:56:19;2;2;
77365;PMS5003;66430;50.182;11.704;2023-07-28T10:58:44;2;2;
77365;PMS5003;66430;50.182;11.704;2023-07-28T11:01:09;3;3;
77365;PMS5003;66430;50.182;11.704;2023-07-28T11:03:35;4;3;
77365;PMS5003;66430;50.182;11.704;2023-07-28T11:06:00;4;3;
77365;PMS5003;66430;50.182;11.704;2023-07-28T11:08:25;4;4;
77365;PMS5003;66430;50.182;11.704;2023-07-28T11:10:50;4;4;
77365;PMS5003;66430;50.182;11.704;2023-07-28T11:13:16;2;2;
77365;PMS5003;66430;50.182;11.704;2023-07-28T11:15:41;2;2;
77365;PMS5003;66430;50.182;11.704;2023-07-28T11:18:06;3;3;
77365;PMS5003;66430;50.182;11.704;2023-07-28T11:20:32;3;3;
77365;PMS5003;66430;50.182;11.704;2023-07-28T11:22:58;4;4;
77365;PMS5003;66430;50.182;11.704;2023-07-28T11:25:23;5;5;
77365;PMS5003;66430;50.182;11.704;2023-07-28T11:27:48;3;3;
77365;PMS5003;66430;50.182;11.704;2023-07-28T11:30:13;3;3;
77365;PMS5003;66430;50.182;11.704;2023-07-28T11:32:44;2;2;
77365;PMS5003;66430;50.182;11.704;2023-07-28T11:35:05;3;3;
77365;PMS5003;66430;50.182;11.704;2023-07-28T11:37:29;4;4;
77365;PMS5003;66430;50.182;11.704;2023-07-28T11:39:55;5;5;
77365;PMS5003;66430;50.182;11.704;2023-07-28T11:42:20;4;4;
77365;PMS5003;66430;50.182;11.704;2023-07-28T11:44:45;4;4;
77365;PMS5003;66430;50.182;11.704;2023-07-28T11:47:11;4;4;
77365;PMS5003;66430;50.182;11.704;2023-07-28T11:49:45;4;4;
77365;PMS5003;66430;50.182;11.704;2023-07-28T11:52:01;3;3;
77365;PMS5003;66430;50.182;11.704;2023-07-28T11:54:26;5;4;
77365;PMS5003;66430;50.182;11.704;2023-07-28T11:56:54;4;4;
77365;PMS5003;66430;50.182;11.704;2023-07-28T11:59:17;3;3;
77365;PMS5003;66430;50.182;11.704;2023-07-28T12:01:51;3;3;
77365;PMS5003;66430;50.182;11.704;2023-07-28T12:06:33;5;5;
77365;PMS5003;66430;50.182;11.704;2023-07-28T12:11:23;5;5;
77365;PMS5003;66430;50.182;11.704;2023-07-28T12:13:49;4;4;
77365;PMS5003;66430;50.182;11.704;2023-07-28T12:18:39;4;4;
77365;PMS5003;66430;50.182;11.704;2023-07-28T12:21:05;3;3;
77365;PMS5003;66430;50.182;11.704;2023-07-28T12:23:30;4;4;
77365;PMS5003;66430;50.182;11.704;2023-07-28T12:25:55;3;3;
77365;PMS5003;66430;50.182;11.704;2023-07-28T12:28:20;3;3;
77365;PMS5003;66430;50.182;11.704;2023-07-28T12:30:46;4;4;
77365;PMS5003;66430;50.182;11.704;2023-07-28T12:33:11;4;4;
77365;PMS5003;66430;50.182;11.704;2023-07-28T12:35:36;4;4;
77365;PMS5003;66430;50.182;11.704;2023-07-28T12:38:02;2;2;
77365;PMS5003;66430;50.182;11.704;2023-07-28T12:40:27;4;4;
77365;PMS5003;66430;50.182;11.704;2023-07-28T12:42:52;4;4;
77365;PMS5003;66430;50.182;11.704;2023-07-28T12:45:18;3;3;
77365;PMS5003;66430;50.182;11.704;2023-07-28T12:47:43;3;3;
77365;PMS5003;66430;50.182;11.704;2023-07-28T12:50:09;4;4;
77365;PMS5003;66430;50.182;11.704;2023-07-28T12:52:33;2;2;
77365;PMS5003;66430;50.182;11.704;2023-07-28T12:54:59;2;2;
77365;PMS5003;66430;50.182;11.704;2023-07-28T12:57:24;3;3;
77365;PMS5003;66430;50.182;11.704;2023-07-28T12:59:49;6;5;
77365;PMS5003;66430;50.182;11.704;2023-07-28T13:02:15;2;2;
77365;PMS5003;66430;50.182;11.704;2023-07-28T13:04:40;3;3;
77365;PMS5003;66430;50.182;11.704;2023-07-28T13:07:05;3;3;
77365;PMS5003;66430;50.182;11.704;2023-07-28T13:09:30;3;3;
77365;PMS5003;66430;50.182;11.704;2023-07-28T13:11:56;3;3;
77365;PMS5003;66430;50.182;11.704;2023-07-28T13:14:21;3;3;
77365;PMS5003;66430;50.182;11.704;2023-07-28T13:16:46;4;4;
77365;PMS5003;66430;50.182;11.704;2023-07-28T13:19:12;3;3;
77365;PMS5003;66430;50.182;11.704;2023-07-28T13:21:37;4;4;
77365;PMS5003;66430;50.182;11.704;2023-07-28T13:24:02;4;3;
77365;PMS5003;66430;50.182;11.704;2023-07-28T13:26:27;2;2;
77365;PMS5003;66430;50.182;11.704;2023-07-28T13:28:53;4;4;
77365;PMS5003;66430;50.182;11.704;2023-07-28T13:31:18;4;4;
77365;PMS5003;66430;50.182;11.704;2023-07-28T13:33:43;3;3;
77365;PMS5003;66430;50.182;11.704;2023-07-28T13:36:09;2;2;
77365;PMS5003;66430;50.182;11.704;2023-07-28T13:38:34;4;4;
77365;PMS5003;66430;50.182;11.704;2023-07-28T13:40:59;4;4;
77365;PMS5003;66430;50.182;11.704;2023-07-28T13:43:24;3;3;
77365;PMS5003;66430;50.182;11.704;2023-07-28T13:45:50;5;3;
77365;PMS5003;66430;50.182;11.704;2023-07-28T13:48:15;3;3;
77365;PMS5003;66430;50.182;11.704;2023-07-28T13:50:40;3;3;
77365;PMS5003;66430;50.182;11.704;2023-07-28T13:53:05;3;3;
77365;PMS5003;66430;50.182;11.704;2023-07-28T13:55:31;3;3;
77365;PMS5003;66430;50.182;11.704;2023-07-28T13:57:56;4;4;
77365;PMS5003;66430;50.182;11.704;2023-07-28T14:00:21;4;4;
77365;PMS5003;66430;50.182;11.704;2023-07-28T14:02:47;3;3;
77365;PMS5003;66430;50.182;11.704;2023-07-28T14:05:12;2;2;
77365;PMS5003;66430;50.182;11.704;2023-07-28T14:07:37;4;4;
77365;PMS5003;66430;50.182;11.704;2023-07-28T14:10:03;3;3;
77365;PMS5003;66430;50.182;11.704;2023-07-28T14:12:28;3;3;
77365;PMS5003;66430;50.182;11.704;2023-07-28T14:14:53;3;3;
77365;PMS5003;66430;50.182;11.704;2023-07-28T14:17:18;4;4;
77365;PMS5003;66430;50.182;11.704;2023-07-28T14:19:44;4;4;
77365;PMS5003;66430;50.182;11.704;2023-07-28T14:22:09;3;3;
77365;PMS5003;66430;50.182;11.704;2023-07-28T14:24:34;5;5;
77365;PMS5003;66430;50.182;11.704;2023-07-28T14:27:00;4;4;
77365;PMS5003;66430;50.182;11.704;2023-07-28T14:29:25;2;2;
77365;PMS5003;66430;50.182;11.704;2023-07-28T14:31:50;3;3;
77365;PMS5003;66430;50.182;11.704;2023-07-28T14:34:15;2;2;
77365;PMS5003;66430;50.182;11.704;2023-07-28T14:36:40;4;4;
77365;PMS5003;66430;50.182;11.704;2023-07-28T14:39:06;3;3;
77365;PMS5003;66430;50.182;11.704;2023-07-28T14:41:31;4;3;
77365;PMS5003;66430;50.182;11.704;2023-07-28T14:43:56;3;3;
77365;PMS5003;66430;50.182;11.704;2023-07-28T14:46:22;4;3;
77365;PMS5003;66430;50.182;11.704;2023-07-28T14:48:47;5;4;
77365;PMS5003;66430;50.182;11.704;2023-07-28T14:51:12;3;3;
77365;PMS5003;66430;50.182;11.704;2023-07-28T14:53:37;4;4;
77365;PMS5003;66430;50.182;11.704;2023-07-28T14:56:04;4;4;
77365;PMS5003;66430;50.182;11.704;2023-07-28T14:58:28;3;3;
77365;PMS5003;66430;50.182;11.704;2023-07-28T15:00:53;3;3;
77365;PMS5003;66430;50.182;11.704;2023-07-28T15:03:19;3;3;
77365;PMS5003;66430;50.182;11.704;2023-07-28T15:05:44;2;2;
77365;PMS5003;66430;50.182;11.704;2023-07-28T15:08:09;3;2;
77365;PMS5003;66430;50.182;11.704;2023-07-28T15:10:34;4;4;
77365;PMS5003;66430;50.182;11.704;2023-07-28T15:13:00;4;4;
77365;PMS5003;66430;50.182;11.704;2023-07-28T15:15:25;3;3;
77365;PMS5003;66430;50.182;11.704;2023-07-28T15:17:52;3;3;
77365;PMS5003;66430;50.182;11.704;2023-07-28T15:20:15;3;3;
77365;PMS5003;66430;50.182;11.704;2023-07-28T15:22:41;2;2;
77365;PMS5003;66430;50.182;11.704;2023-07-28T15:25:06;4;4;
77365;PMS5003;66430;50.182;11.704;2023-07-28T15:27:31;5;3;
77365;PMS5003;66430;50.182;11.704;2023-07-28T15:29:56;2;2;
77365;PMS5003;66430;50.182;11.704;2023-07-28T15:32:22;2;2;
77365;PMS5003;66430;50.182;11.704;2023-07-28T15:34:47;4;4;
77365;PMS5003;66430;50.182;11.704;2023-07-28T15:37:12;2;2;
77365;PMS5003;66430;50.182;11.704;2023-07-28T15:39:38;4;4;
77365;PMS5003;66430;50.182;11.704;2023-07-28T15:42:03;5;4;
77365;PMS5003;66430;50.182;11.704;2023-07-28T15:44:28;2;2;
77365;PMS5003;66430;50.182;11.704;2023-07-28T15:46:53;3;3;
77365;PMS5003;66430;50.182;11.704;2023-07-28T15:49:24;3;3;
77365;PMS5003;66430;50.182;11.704;2023-07-28T15:51:44;1;1;
77365;PMS5003;66430;50.182;11.704;2023-07-28T15:54:09;4;4;
77365;PMS5003;66430;50.182;11.704;2023-07-28T15:56:34;2;2;
77365;PMS5003;66430;50.182;11.704;2023-07-28T15:59:00;5;5;
77365;PMS5003;66430;50.182;11.704;2023-07-28T16:01:25;5;5;
77365;PMS5003;66430;50.182;11.704;2023-07-28T16:03:51;3;3;
77365;PMS5003;66430;50.182;11.704;2023-07-28T16:06:16;3;3;
77365;PMS5003;66430;50.182;11.704;2023-07-28T16:08:41;5;5;
77365;PMS5003;66430;50.182;11.704;2023-07-28T16:11:06;4;4;
77365;PMS5003;66430;50.182;11.704;2023-07-28T16:13:31;5;4;
77365;PMS5003;66430;50.182;11.704;2023-07-28T16:15:57;2;2;
77365;PMS5003;66430;50.182;11.704;2023-07-28T16:18:22;3;3;
77365;PMS5003;66430;50.182;11.704;2023-07-28T16:20:47;4;4;
77365;PMS5003;66430;50.182;11.704;2023-07-28T16:23:13;4;4;
77365;PMS5003;66430;50.182;11.704;2023-07-28T16:25:38;3;3;
77365;PMS5003;66430;50.182;11.704;2023-07-28T16:28:03;4;4;
77365;PMS5003;66430;50.182;11.704;2023-07-28T16:30:28;3;3;
77365;PMS5003;66430;50.182;11.704;2023-07-28T16:32:54;5;5;
77365;PMS5003;66430;50.182;11.704;2023-07-28T16:35:19;6;6;
77365;PMS5003;66430;50.182;11.704;2023-07-28T16:37:49;3;3;
77365;PMS5003;66430;50.182;11.704;2023-07-28T16:40:10;5;5;